Time;durP1;ratioP1;P1;durP2;ratioP2;P2;SDS_P1;SDS_P2;PMS_P1;PMS_P2;Temp;Humidity;BMP_temperature;BMP_pressure;BME280_temperature;BME280_humidity;BME280_pressure;Samples;Min_cycle;Max_cycle;Signal;HPM_P1;HPM_P2
2021/06/24 00:01:15;;;;;;;5.57;2.67;;;;;;;-144.99;75.64;52272.81;5069248;28;20231;-62
2021/06/24 00:03:41;;;;;;;6.50;2.57;;;;;;;-144.99;75.68;52295.22;5079375;28;20200;-62
2021/06/24 00:06:08;;;;;;;6.43;3.97;;;;;;;-144.99;75.95;52301.34;5073054;28;20233;-62
2021/06/24 00:08:35;;;;;;;4.97;2.50;;;;;;;-144.99;76.26;52297.25;5075328;28;20232;-62
2021/06/24 00:11:05;;;;;;;5.07;2.40;;;;;;;-144.99;76.09;52254.47;5072273;28;20204;-62
2021/06/24 00:13:32;;;;;;;5.43;2.80;;;;;;;-144.99;76.64;52309.50;5071871;28;20351;-62
2021/06/24 00:15:59;;;;;;;5.57;2.23;;;;;;;-144.99;76.64;52276.88;5073106;28;20208;-61
2021/06/24 00:18:26;;;;;;;3.03;2.57;;;;;;;-144.99;76.82;52260.56;5073016;28;20701;-62
2021/06/24 00:20:53;;;;;;;8.00;3.27;;;;;;;-144.99;77.07;52311.53;5073406;28;20205;-62
2021/06/24 00:23:20;;;;;;;4.07;2.33;;;;;;;-144.99;77.49;52262.63;5072974;28;20562;-62
2021/06/24 00:25:47;;;;;;;7.10;3.53;;;;;;;-144.99;77.33;52321.72;5069701;28;20606;-62
2021/06/24 00:28:16;;;;;;;3.90;2.57;;;;;;;-144.99;77.72;52287.06;5072918;28;20593;-62
2021/06/24 00:30:44;;;;;;;4.30;3.07;;;;;;;-144.99;77.95;52278.91;5076242;28;20742;-60
2021/06/24 00:33:11;;;;;;;5.90;3.40;;;;;;;-144.99;78.08;52321.72;5081991;22;20220;-60
2021/06/24 00:35:37;;;;;;;8.57;3.17;;;;;;;-144.99;77.90;52285.03;5067747;28;20206;-61
2021/06/24 00:38:05;;;;;;;6.40;2.80;;;;;;;-144.99;78.04;52285.03;5077360;28;20228;-60
2021/06/24 00:40:33;;;;;;;4.60;2.83;;;;;;;-144.99;78.29;52309.50;5074568;28;20208;-61
2021/06/24 00:43:02;;;;;;;7.20;3.20;;;;;;;-144.99;78.23;52313.56;5065902;28;20458;-59
2021/06/24 00:45:30;;;;;;;4.83;3.67;;;;;;;-144.99;78.31;52297.25;5062017;28;20198;-58
2021/06/24 00:47:57;;;;;;;6.00;3.23;;;;;;;-144.99;78.17;52305.41;5068695;28;20235;-59
2021/06/24 00:50:24;;;;;;;6.47;2.80;;;;;;;-144.99;78.25;52307.47;5071038;28;20678;-59
2021/06/24 00:52:50;;;;;;;5.97;2.63;;;;;;;-144.99;78.54;52293.19;5055748;28;20211;-59
2021/06/24 00:55:17;;;;;;;6.27;3.17;;;;;;;-144.99;78.72;52305.41;5063374;28;20210;-59
2021/06/24 00:57:43;;;;;;;5.57;2.77;;;;;;;-144.99;78.73;52297.25;5059892;28;20573;-59
2021/06/24 01:00:11;;;;;;;7.57;2.90;;;;;;;-144.99;78.68;52280.97;5055325;28;20204;-60
2021/06/24 01:02:39;;;;;;;4.67;2.60;;;;;;;-144.99;78.70;52264.66;5056213;28;20212;-60
2021/06/24 01:05:07;;;;;;;8.17;3.03;;;;;;;-144.99;78.98;52268.72;5071439;28;20196;-60
2021/06/24 01:07:34;;;;;;;6.07;3.40;;;;;;;-144.99;78.86;52305.41;5053938;28;20229;-60
2021/06/24 01:10:00;;;;;;;4.83;2.97;;;;;;;-144.99;78.86;52289.13;5065366;28;20225;-60
2021/06/24 01:12:27;;;;;;;5.87;2.40;;;;;;;-144.99;78.90;52303.38;5062988;28;20346;-60
2021/06/24 01:14:53;;;;;;;6.90;4.43;;;;;;;-144.99;78.71;52293.19;5067124;28;20246;-59
2021/06/24 01:17:20;;;;;;;6.17;3.80;;;;;;;-144.99;78.88;52289.13;5064898;28;20193;-60
2021/06/24 01:19:48;;;;;;;5.40;2.60;;;;;;;-144.99;78.79;52311.53;5067748;28;20230;-60
2021/06/24 01:22:15;;;;;;;7.87;2.90;;;;;;;-144.99;79.09;52289.13;5060281;28;20211;-59
2021/06/24 01:24:43;;;;;;;8.37;4.87;;;;;;;-144.99;78.96;52309.50;5066743;28;20204;-60
2021/06/24 01:27:09;;;;;;;5.67;3.20;;;;;;;-144.99;78.89;52342.09;5064434;28;20224;-59
2021/06/24 01:29:36;;;;;;;8.33;4.73;;;;;;;-144.99;79.18;52321.72;5071870;28;20575;-59
2021/06/24 01:32:03;;;;;;;7.37;4.60;;;;;;;-144.99;79.16;52303.38;5060232;28;20239;-59
2021/06/24 01:34:30;;;;;;;7.97;3.47;;;;;;;-144.99;79.03;52285.03;5063943;28;20706;-58
2021/06/24 01:36:57;;;;;;;6.87;3.07;;;;;;;-144.99;79.22;52313.56;5066071;28;20200;-58
2021/06/24 01:39:23;;;;;;;7.80;3.40;;;;;;;-144.99;79.09;52289.13;5064541;28;20258;-58
2021/06/24 01:41:59;;;;;;;9.37;3.63;;;;;;;-144.99;79.05;52276.88;5062425;28;20234;-58
2021/06/24 01:44:31;;;;;;;5.47;2.53;;;;;;;-144.99;78.98;52301.34;5055549;28;20292;-58
2021/06/24 01:46:58;;;;;;;10.60;3.67;;;;;;;-144.99;79.04;52289.13;5064650;28;20666;-57
2021/06/24 01:49:24;;;;;;;12.63;3.47;;;;;;;-144.99;79.16;52309.50;5063991;28;20292;-57
2021/06/24 01:51:51;;;;;;;4.67;2.87;;;;;;;-144.99;79.30;52311.53;5056596;28;20491;-59
2021/06/24 01:54:19;;;;;;;9.47;3.50;;;;;;;-144.99;79.32;52313.56;5059136;28;20220;-56
2021/06/24 01:56:46;;;;;;;5.07;3.90;;;;;;;-144.99;79.23;52293.19;5068887;28;20207;-56
2021/06/24 01:59:14;;;;;;;6.60;2.90;;;;;;;-144.99;79.22;52256.50;5060408;28;20265;-57
2021/06/24 02:01:40;;;;;;;8.33;4.47;;;;;;;-144.99;79.03;52313.56;5059629;28;20670;-60
2021/06/24 02:04:07;;;;;;;6.40;3.90;;;;;;;-144.99;79.11;52325.81;5064133;28;20673;-60
2021/06/24 02:06:34;;;;;;;5.90;3.03;;;;;;;-144.99;79.27;52285.03;5063197;28;20472;-61
2021/06/24 02:09:01;;;;;;;6.53;3.17;;;;;;;-144.99;79.22;52293.19;5053857;28;20232;-60
2021/06/24 02:11:27;;;;;;;4.33;3.17;;;;;;;-144.99;79.10;52272.81;5059694;28;20303;-60
2021/06/24 02:13:54;;;;;;;5.70;2.93;;;;;;;-144.99;79.28;52254.47;5067245;28;20215;-59
2021/06/24 02:16:22;;;;;;;5.63;2.90;;;;;;;-144.99;79.19;52303.38;5063488;28;20209;-59
2021/06/24 02:18:49;;;;;;;7.00;5.03;;;;;;;-144.99;79.31;52252.44;5063239;28;20216;-59
2021/06/24 02:21:15;;;;;;;5.60;2.77;;;;;;;-144.99;79.48;52272.81;5072936;28;20212;-60
2021/06/24 02:23:42;;;;;;;3.97;2.80;;;;;;;-144.99;79.69;52338.03;5072851;28;20200;-60
2021/06/24 02:26:09;;;;;;;9.20;3.10;;;;;;;-144.99;79.77;52260.56;5067914;28;20205;-60
2021/06/24 02:28:35;;;;;;;5.97;3.00;;;;;;;-144.99;79.62;52289.13;5078586;28;20242;-60
2021/06/24 02:31:02;;;;;;;7.30;2.73;;;;;;;-144.99;79.63;52297.25;5065282;28;20215;-60
2021/06/24 02:33:31;;;;;;;11.17;6.33;;;;;;;-144.99;79.55;52307.47;5074517;28;20212;-61
2021/06/24 02:35:59;;;;;;;5.33;2.77;;;;;;;-144.99;79.72;52305.41;5070625;28;20214;-60
2021/06/24 02:38:26;;;;;;;4.90;3.00;;;;;;;-144.99;79.67;52276.88;5073336;28;20219;-60
2021/06/24 02:40:53;;;;;;;6.33;2.97;;;;;;;-144.99;79.71;52268.72;5064872;28;20208;-61
2021/06/24 02:43:19;;;;;;;7.07;2.93;;;;;;;-144.99;79.79;52297.25;5056909;28;20211;-60
2021/06/24 02:45:46;;;;;;;9.70;4.33;;;;;;;-144.99;79.90;52305.41;5055975;28;20206;-61
2021/06/24 02:48:13;;;;;;;4.30;3.23;;;;;;;-144.99;79.71;52297.25;5062767;28;20228;-60
2021/06/24 02:50:40;;;;;;;5.13;2.70;;;;;;;-144.99;79.86;52313.56;5064241;28;20221;-61
2021/06/24 02:53:07;;;;;;;9.27;2.93;;;;;;;-144.99;80.17;52305.41;5057392;28;20219;-61
2021/06/24 02:55:34;;;;;;;5.17;2.87;;;;;;;-144.99;80.18;52276.88;5055168;28;20215;-61
2021/06/24 02:58:01;;;;;;;5.53;2.87;;;;;;;-144.99;80.09;52276.88;5061134;28;20198;-61
2021/06/24 03:00:28;;;;;;;4.47;3.10;;;;;;;-144.99;80.43;52327.84;5067296;28;20197;-61
2021/06/24 03:02:55;;;;;;;6.40;3.57;;;;;;;-144.99;80.29;52301.34;5061480;28;20205;-61
2021/06/24 03:05:23;;;;;;;4.67;2.67;;;;;;;-144.99;80.41;52297.25;5070979;28;20201;-61
2021/06/24 03:07:51;;;;;;;4.70;4.13;;;;;;;-144.99;80.22;52276.88;5056160;28;20217;-62
2021/06/24 03:10:20;;;;;;;7.13;3.07;;;;;;;-144.99;80.14;52285.03;5064173;28;20635;-61
2021/06/24 03:12:47;;;;;;;4.17;2.90;;;;;;;-144.99;80.38;52309.50;5062847;28;20211;-60
2021/06/24 03:15:15;;;;;;;6.27;3.87;;;;;;;-144.99;80.09;52293.19;5069092;28;20205;-59
2021/06/24 03:17:42;;;;;;;8.17;2.90;;;;;;;-144.99;80.18;52252.44;5066199;28;20697;-59
2021/06/24 03:20:11;;;;;;;5.77;3.27;;;;;;;-144.99;80.42;52301.34;5065026;28;20220;-59
2021/06/24 03:22:38;;;;;;;4.70;3.33;;;;;;;-144.99;80.30;52283.00;5060718;28;20219;-62
2021/06/24 03:25:08;;;;;;;5.20;2.43;;;;;;;-144.99;80.29;52301.34;5062490;28;20491;-62
2021/06/24 03:27:35;;;;;;;4.37;2.90;;;;;;;-144.99;80.48;52309.50;5062933;28;20297;-62
2021/06/24 03:30:02;;;;;;;6.73;2.43;;;;;;;-144.99;80.34;52297.25;5065522;28;20221;-62
2021/06/24 03:32:29;;;;;;;4.00;2.33;;;;;;;-144.99;80.42;52313.56;5065019;28;20217;-62
2021/06/24 03:34:55;;;;;;;4.33;2.53;;;;;;;-144.99;80.64;52276.88;5064276;28;20662;-61
2021/06/24 03:37:22;;;;;;;7.33;3.70;;;;;;;-144.99;80.41;52268.72;5072362;28;20216;-61
2021/06/24 03:39:48;;;;;;;8.97;3.47;;;;;;;-144.99;80.22;52256.50;5060801;28;20236;-61
2021/06/24 03:42:17;;;;;;;3.40;2.70;;;;;;;-144.99;80.16;52301.34;5060178;28;20726;-61
2021/06/24 03:44:43;;;;;;;8.30;2.70;;;;;;;-144.99;80.34;52285.03;5069846;28;20208;-61
2021/06/24 03:47:10;;;;;;;6.20;2.87;;;;;;;-144.99;80.24;52268.72;5068703;28;20209;-61
2021/06/24 03:49:36;;;;;;;5.47;2.77;;;;;;;-144.99;80.38;52256.50;5063789;28;20224;-59
2021/06/24 03:52:04;;;;;;;9.23;3.07;;;;;;;-144.99;80.29;52346.19;5063303;28;20205;-59
2021/06/24 03:54:30;;;;;;;5.20;2.73;;;;;;;-144.99;79.95;52297.25;5065883;28;20217;-59
2021/06/24 03:56:57;;;;;;;5.27;2.83;;;;;;;-144.99;79.78;52264.66;5064873;28;20209;-59
2021/06/24 03:59:25;;;;;;;5.67;3.07;;;;;;;-144.99;79.67;52280.97;5059036;28;20233;-59
2021/06/24 04:01:51;;;;;;;5.73;3.00;;;;;;;-144.99;79.79;52293.19;5057141;28;20680;-58
2021/06/24 04:04:18;;;;;;;5.07;2.70;;;;;;;-144.99;79.69;52262.63;5061412;28;20208;-59
2021/06/24 04:06:44;;;;;;;4.87;2.43;;;;;;;-144.99;79.57;52303.38;5062529;28;20213;-61
2021/06/24 04:09:11;;;;;;;6.57;3.03;;;;;;;-144.99;79.41;52260.56;5059917;28;20228;-60
2021/06/24 04:11:38;;;;;;;8.23;3.37;;;;;;;-144.99;79.28;52293.19;5064981;28;20296;-60
2021/06/24 04:14:04;;;;;;;3.67;2.87;;;;;;;-144.99;79.38;52244.28;5067987;28;20207;-61
2021/06/24 04:16:32;;;;;;;8.40;2.53;;;;;;;-144.99;79.54;52260.56;5068960;28;20577;-60
2021/06/24 04:18:59;;;;;;;4.43;2.70;;;;;;;-144.99;79.30;52285.03;5065069;28;20233;-59
2021/06/24 04:21:26;;;;;;;5.40;2.80;;;;;;;-144.99;79.18;52305.41;5066186;28;20212;-60
2021/06/24 04:23:52;;;;;;;5.40;2.80;;;;;;;-144.99;78.96;52268.72;5063864;28;20207;-59
2021/06/24 04:26:19;;;;;;;10.10;2.93;;;;;;;-144.99;79.03;52307.47;5064291;28;20566;-59
2021/06/24 04:28:45;;;;;;;5.77;2.33;;;;;;;-144.99;78.99;52289.13;5054605;28;20271;-59
2021/06/24 04:31:12;;;;;;;8.70;3.53;;;;;;;-144.99;78.89;52272.81;5064223;28;20219;-59
2021/06/24 04:33:40;;;;;;;3.70;2.10;;;;;;;-144.99;78.59;52295.22;5055437;28;20213;-59
2021/06/24 04:36:07;;;;;;;4.33;2.70;;;;;;;-144.99;78.46;52272.81;5060880;28;20209;-59
2021/06/24 04:38:33;;;;;;;4.07;2.30;;;;;;;-144.99;78.61;52270.78;5056967;28;20221;-59
2021/06/24 04:41:00;;;;;;;3.30;2.70;;;;;;;-144.99;78.18;52268.72;5063822;28;20203;-59
2021/06/24 04:43:27;;;;;;;5.63;2.43;;;;;;;-144.99;78.12;52260.56;5069964;28;20213;-58
2021/06/24 04:45:54;;;;;;;4.40;2.30;;;;;;;-144.99;77.84;52252.44;5068046;28;20324;-58
2021/06/24 04:48:20;;;;;;;3.57;2.17;;;;;;;-144.99;77.59;52256.50;5062535;28;20946;-58
2021/06/24 04:50:48;;;;;;;5.70;3.17;;;;;;;-144.99;77.40;52280.97;5067302;28;20658;-58
2021/06/24 04:53:15;;;;;;;5.17;3.13;;;;;;;-144.99;77.11;52248.34;5065261;28;20201;-58
2021/06/24 04:55:41;;;;;;;5.23;3.07;;;;;;;-144.99;76.83;52258.53;5067462;28;20269;-59
2021/06/24 04:58:09;;;;;;;3.50;2.33;;;;;;;-144.99;76.55;52317.66;5068378;28;20713;-59
2021/06/24 05:00:36;;;;;;;10.67;4.57;;;;;;;-144.99;76.36;52266.69;5071687;28;20207;-63
2021/06/24 05:03:04;;;;;;;20.43;7.30;;;;;;;-144.99;76.43;52303.38;5063120;28;20224;-63
2021/06/24 05:05:30;;;;;;;6.67;3.77;;;;;;;-144.99;76.22;52297.25;5066740;28;20402;-63
2021/06/24 05:08:09;;;;;;;5.40;2.87;;;;;;;-144.99;75.76;52285.03;5064232;28;20224;-63
2021/06/24 05:10:36;;;;;;;6.37;2.37;;;;;;;-144.99;75.62;52260.56;5062563;28;20209;-63
2021/06/24 05:13:03;;;;;;;11.13;3.73;;;;;;;-144.99;75.71;52283.00;5072388;28;20426;-63
2021/06/24 05:15:30;;;;;;;3.83;2.40;;;;;;;-144.99;75.76;52293.19;5073958;28;20296;-62
2021/06/24 05:17:57;;;;;;;6.00;2.83;;;;;;;-144.99;75.66;52289.13;5066738;28;20208;-62
2021/06/24 05:20:24;;;;;;;7.73;3.10;;;;;;;-144.99;75.29;52289.13;5057624;28;20746;-62
2021/06/24 05:22:50;;;;;;;6.57;3.17;;;;;;;-144.99;75.36;52293.19;5061824;28;20211;-62
2021/06/24 05:25:18;;;;;;;6.20;2.83;;;;;;;-144.99;75.22;52256.50;5055227;28;20209;-62
2021/06/24 05:27:45;;;;;;;8.67;2.77;;;;;;;-144.99;75.48;52244.28;5055815;28;20466;-60
2021/06/24 05:30:12;;;;;;;6.03;3.23;;;;;;;-144.99;75.16;52264.66;5063907;28;20261;-60
2021/06/24 05:32:40;;;;;;;7.50;2.90;;;;;;;-144.99;74.87;52278.91;5061575;28;20208;-60
2021/06/24 05:35:08;;;;;;;6.80;3.10;;;;;;;-144.99;74.16;52289.13;5066383;28;20641;-60
2021/06/24 05:37:34;;;;;;;4.13;2.23;;;;;;;-144.99;74.41;52301.34;5065283;28;20214;-60
2021/06/24 05:40:01;;;;;;;8.87;3.70;;;;;;;-144.99;74.00;52289.13;5062848;28;20224;-60
2021/06/24 05:42:29;;;;;;;10.20;2.73;;;;;;;-144.99;73.91;52293.19;5058318;28;20201;-60
2021/06/24 05:44:55;;;;;;;7.20;4.07;;;;;;;-144.99;73.09;52252.44;5059582;28;20209;-60
2021/06/24 05:47:22;;;;;;;9.20;3.17;;;;;;;-144.99;72.85;52285.03;5059041;28;20205;-60
2021/06/24 05:49:48;;;;;;;4.97;3.03;;;;;;;-144.99;72.51;52236.13;5062071;28;20341;-61
2021/06/24 05:52:15;;;;;;;4.80;2.30;;;;;;;-144.99;72.13;52301.34;5061118;28;20206;-61
2021/06/24 05:54:41;;;;;;;4.80;2.63;;;;;;;-144.99;71.94;52256.50;5063033;28;20205;-61
2021/06/24 05:57:08;;;;;;;7.07;3.00;;;;;;;-144.99;70.95;52256.50;5065531;28;20749;-61
2021/06/24 05:59:36;;;;;;;4.97;2.87;;;;;;;-144.99;70.71;52260.56;5064321;28;21815;-61
2021/06/24 06:02:03;;;;;;;9.87;4.77;;;;;;;-144.99;70.32;52270.78;5056035;28;20232;-61
2021/06/24 06:04:29;;;;;;;6.47;2.80;;;;;;;-144.99;70.49;52268.72;5065048;28;20201;-59
2021/06/24 06:06:56;;;;;;;4.10;2.30;;;;;;;-144.99;70.23;52280.97;5060719;28;20446;-59
2021/06/24 06:09:22;;;;;;;5.57;3.23;;;;;;;-144.99;70.24;52227.97;5052742;28;20221;-58
2021/06/24 06:11:49;;;;;;;6.13;3.13;;;;;;;-144.99;69.62;52264.66;5060852;28;20208;-58
2021/06/24 06:14:15;;;;;;;10.67;2.33;;;;;;;-144.99;69.98;52248.34;5056453;28;20205;-58
2021/06/24 06:16:45;;;;;;;8.30;2.50;;;;;;;-144.99;69.71;52256.50;5057259;28;20214;-58
2021/06/24 06:19:11;;;;;;;6.90;3.83;;;;;;;-144.99;69.76;52285.03;5057366;28;20253;-58
2021/06/24 06:21:38;;;;;;;6.60;2.40;;;;;;;-144.99;69.25;52254.47;5055935;28;20242;-58
2021/06/24 06:24:06;;;;;;;6.27;2.10;;;;;;;-144.99;68.61;52213.69;5054986;28;20211;-58
2021/06/24 06:26:32;;;;;;;7.07;2.50;;;;;;;-144.99;67.85;52203.50;5064365;28;20899;-57
2021/06/24 06:29:03;;;;;;;7.07;2.63;;;;;;;-144.99;67.79;52256.50;5063286;28;20233;-59
2021/06/24 06:31:30;;;;;;;6.90;3.40;;;;;;;-144.99;67.10;52270.78;5064149;28;20291;-60
2021/06/24 06:33:58;;;;;;;4.53;2.83;;;;;;;-144.99;66.26;52219.81;5061653;28;20218;-61
2021/06/24 06:36:25;;;;;;;3.87;1.83;;;;;;;-144.99;65.89;52240.19;5066989;28;20216;-59
2021/06/24 06:38:51;;;;;;;4.10;2.33;;;;;;;-144.99;65.00;52219.81;5069714;28;20220;-59
2021/06/24 06:41:18;;;;;;;8.80;2.47;;;;;;;-144.99;64.55;52234.09;5065835;28;20199;-58
2021/06/24 06:43:45;;;;;;;6.93;2.83;;;;;;;-144.99;63.87;52252.44;5066604;28;20296;-58
2021/06/24 06:46:11;;;;;;;5.97;2.30;;;;;;;-144.99;63.60;52232.03;5058419;28;21838;-58
2021/06/24 06:48:38;;;;;;;6.17;3.00;;;;;;;-144.99;63.07;52227.97;5069729;28;20236;-59
2021/06/24 06:51:06;;;;;;;3.43;2.50;;;;;;;-144.99;63.10;52227.97;5068995;28;20660;-61
2021/06/24 06:53:33;;;;;;;5.80;4.90;;;;;;;-144.99;62.73;52223.88;5060763;28;20940;-59
2021/06/24 06:55:59;;;;;;;6.73;2.13;;;;;;;-144.99;62.45;52223.88;5059876;28;20684;-62
2021/06/24 06:58:26;;;;;;;6.07;2.97;;;;;;;-144.99;62.32;52227.97;5067541;28;20235;-62
2021/06/24 07:00:53;;;;;;;7.90;3.33;;;;;;;-144.99;61.20;52219.81;5069431;28;20664;-62
2021/06/24 07:03:22;;;;;;;9.20;2.60;;;;;;;-144.99;60.94;52201.47;5071157;28;20215;-68
2021/06/24 07:05:49;;;;;;;6.53;2.33;;;;;;;-144.99;60.93;52227.97;5062494;28;20777;-68
2021/06/24 07:08:17;;;;;;;3.90;3.00;;;;;;;-144.99;60.51;52146.44;5061830;28;20221;-68
2021/06/24 07:10:44;;;;;;;4.27;2.40;;;;;;;-144.99;60.16;52195.34;5070168;28;20705;-68
2021/06/24 07:13:11;;;;;;;3.87;3.30;;;;;;;-144.99;59.21;52201.47;5067783;28;20219;-68
2021/06/24 07:15:38;;;;;;;3.43;2.60;;;;;;;-144.99;57.97;52195.34;5062064;28;20210;-69
2021/06/24 07:18:06;;;;;;;8.80;3.97;;;;;;;-144.99;57.10;52215.75;5068618;28;20236;-68
2021/06/24 07:20:39;;;;;;;5.30;2.40;;;;;;;-144.99;56.87;52183.13;5072403;28;20204;-68
2021/06/24 07:23:08;;;;;;;8.07;3.73;;;;;;;-144.99;56.04;52205.53;5062462;28;20581;-68
2021/06/24 07:25:36;;;;;;;9.93;4.77;;;;;;;-144.99;56.61;52219.81;5061546;28;20207;-68
2021/06/24 07:28:03;;;;;;;9.67;2.47;;;;;;;-144.99;57.39;52236.13;5066199;28;20197;-70
2021/06/24 07:30:32;;;;;;;7.53;3.30;;;;;;;-144.99;57.75;52232.03;5079064;28;20288;-64
2021/06/24 07:32:58;;;;;;;9.30;3.13;;;;;;;-144.99;57.62;52207.59;5073503;28;20213;-63
2021/06/24 07:35:25;;;;;;;6.10;3.50;;;;;;;-144.99;57.73;52203.50;5076780;28;20202;-64
2021/06/24 07:37:51;;;;;;;6.00;2.70;;;;;;;-144.99;57.44;52225.94;5076225;28;20204;-63
2021/06/24 07:40:20;;;;;;;5.27;2.40;;;;;;;-144.99;58.04;52250.38;5082073;28;20219;-64
2021/06/24 07:42:49;;;;;;;3.63;2.47;;;;;;;-144.99;58.13;52215.75;5057419;28;20205;-64
2021/06/24 07:45:16;;;;;;;8.10;4.03;;;;;;;-144.99;58.58;52223.88;5066082;28;20205;-63
2021/06/24 07:47:43;;;;;;;9.50;4.30;;;;;;;-144.99;58.92;52246.31;5072908;28;20203;-63
2021/06/24 07:50:10;;;;;;;4.50;3.50;;;;;;;-144.99;58.07;52187.19;5070590;28;20225;-64
2021/06/24 07:52:37;;;;;;;6.37;3.43;;;;;;;-144.99;57.09;52223.88;5070656;28;20240;-63
2021/06/24 07:55:07;;;;;;;6.60;2.70;;;;;;;-144.99;56.35;52236.13;5071011;28;20674;-64
2021/06/24 07:57:34;;;;;;;6.87;3.07;;;;;;;-144.99;55.85;52174.97;5070787;28;20222;-64
2021/06/24 08:00:02;;;;;;;3.83;1.97;;;;;;;-144.99;54.57;52248.34;5072188;28;20224;-64
2021/06/24 08:02:28;;;;;;;3.70;2.10;;;;;;;-144.99;54.69;52207.59;5071359;28;20208;-64
2021/06/24 08:04:55;;;;;;;4.33;2.13;;;;;;;-144.99;54.75;52219.81;5070829;28;20200;-64
2021/06/24 08:07:21;;;;;;;6.03;2.93;;;;;;;-144.99;54.95;52215.75;5072358;28;20211;-65
2021/06/24 08:09:48;;;;;;;10.90;6.30;;;;;;;-144.99;55.24;52166.81;5077599;28;20228;-64
2021/06/24 08:12:15;;;;;;;4.43;3.23;;;;;;;-144.99;54.73;52215.75;5070777;28;20201;-63
2021/06/24 08:14:41;;;;;;;6.50;3.83;;;;;;;-144.99;56.42;52227.97;5071403;28;20215;-63
2021/06/24 08:17:09;;;;;;;4.43;3.60;;;;;;;-144.99;56.11;52252.44;5070631;28;20211;-63
2021/06/24 08:19:36;;;;;;;7.43;3.27;;;;;;;-144.99;56.70;52240.19;5070462;28;20230;-63
2021/06/24 08:22:04;;;;;;;10.23;4.70;;;;;;;-144.99;57.12;52248.34;5069945;28;20214;-63
2021/06/24 08:24:31;;;;;;;4.37;2.80;;;;;;;-144.99;57.21;52183.13;5070842;28;20213;-63
2021/06/24 08:26:57;;;;;;;6.50;3.23;;;;;;;-144.99;56.94;52207.59;5071132;28;20232;-63
2021/06/24 08:29:24;;;;;;;6.43;3.23;;;;;;;-144.99;56.97;52215.75;5070993;28;20235;-63
2021/06/24 08:34:20;;;;;;;9.03;4.90;;;;;;;-144.99;57.12;52199.44;5086582;28;20675;-66
2021/06/24 08:36:46;;;;;;;3.40;2.47;;;;;;;-144.99;57.55;52205.53;5090988;28;20210;-65
2021/06/24 08:39:13;;;;;;;6.53;2.93;;;;;;;-144.99;57.68;52207.59;5090363;28;20637;-65
2021/06/24 08:41:40;;;;;;;8.47;4.87;;;;;;;-144.99;57.57;52223.88;5091005;28;20201;-65
2021/06/24 08:44:08;;;;;;;4.83;3.90;;;;;;;-144.99;57.51;52211.66;5091519;28;20238;-66
2021/06/24 08:46:34;;;;;;;8.23;4.07;;;;;;;-144.99;56.88;52238.16;5090861;28;20233;-65
2021/06/24 08:49:03;;;;;;;5.87;4.23;;;;;;;-144.99;56.71;52211.66;5090633;28;20514;-65
2021/06/24 08:51:31;;;;;;;7.80;3.80;;;;;;;-144.99;56.75;52256.50;5090535;28;20267;-65
2021/06/24 08:54:00;;;;;;;5.77;4.50;;;;;;;-144.99;56.61;52203.50;5091351;28;20214;-66
2021/06/24 08:56:27;;;;;;;8.43;4.17;;;;;;;-144.99;56.45;52181.09;5090648;28;20813;-65
2021/06/24 08:58:53;;;;;;;4.13;2.83;;;;;;;-144.99;55.12;52203.50;5090638;28;20237;-66
2021/06/24 09:01:20;;;;;;;5.67;2.87;;;;;;;-144.99;54.03;52183.13;5089664;28;20236;-66
2021/06/24 09:03:49;;;;;;;4.63;2.40;;;;;;;-144.99;54.30;52189.25;5091313;28;20208;-64
2021/06/24 09:06:16;;;;;;;7.07;3.17;;;;;;;-144.99;52.93;52232.03;5091083;28;20226;-68
2021/06/24 09:08:46;;;;;;;5.37;2.47;;;;;;;-144.99;52.77;52207.59;5091040;28;20258;-66
2021/06/24 09:11:21;;;;;;;3.97;2.63;;;;;;;-144.99;52.57;52199.44;5090723;28;20725;-65
2021/06/24 09:14:01;;;;;;;5.83;2.67;;;;;;;-144.99;52.98;52201.47;5090839;28;20728;-65
2021/06/24 09:16:29;;;;;;;8.53;4.77;;;;;;;-144.99;52.08;52199.44;5089551;28;20237;-65
2021/06/24 09:19:15;;;;;;;4.50;2.37;;;;;;;-144.99;52.06;52168.84;5080592;28;20743;-66
2021/06/24 09:21:43;;;;;;;3.67;2.17;;;;;;;-144.99;51.85;52174.97;5085518;28;20207;-66
2021/06/24 09:24:30;;;;;;;5.67;2.47;;;;;;;-144.99;51.74;52113.84;5090068;28;20660;-68
2021/06/24 09:26:59;;;;;;;4.57;1.90;;;;;;;-144.99;50.76;52117.91;5088473;28;20254;-65
2021/06/24 09:29:26;;;;;;;6.33;2.47;;;;;;;-144.99;50.02;52168.84;5090179;28;20310;-65
2021/06/24 09:31:55;;;;;;;5.33;2.27;;;;;;;-144.99;50.29;52142.38;5089858;28;20210;-66
2021/06/24 09:34:22;;;;;;;4.17;2.57;;;;;;;-144.99;48.45;52146.44;5090361;28;20239;-65
2021/06/24 09:36:51;;;;;;;4.40;2.80;;;;;;;-144.99;48.41;52174.97;5089927;28;20211;-66
2021/06/24 09:39:32;;;;;;;5.80;2.83;;;;;;;-144.99;48.28;52121.97;5090595;28;20232;-66
2021/06/24 09:42:02;;;;;;;7.60;3.23;;;;;;;-144.99;47.90;52166.81;5090586;28;20301;-57
2021/06/24 09:44:30;;;;;;;3.90;2.30;;;;;;;-144.99;47.59;52117.91;5091051;28;20211;-65
2021/06/24 09:46:57;;;;;;;5.13;2.27;;;;;;;-144.99;47.24;52154.59;5089791;28;20686;-62
2021/06/24 09:49:30;;;;;;;4.43;2.17;;;;;;;-144.99;47.24;52170.91;5090039;28;20245;-65
2021/06/24 09:51:57;;;;;;;8.60;3.07;;;;;;;-144.99;47.07;52124.03;5085714;28;20204;-66
2021/06/24 09:54:37;;;;;;;5.73;2.33;;;;;;;-144.99;47.15;52130.13;5087382;28;20578;-64
2021/06/24 09:57:06;;;;;;;6.40;2.83;;;;;;;-144.99;47.53;52162.75;5090566;28;20210;-68
2021/06/24 09:59:38;;;;;;;6.17;1.93;;;;;;;-144.99;48.38;52170.91;5090140;28;20231;-65
2021/06/24 10:02:10;;;;;;;4.00;2.60;;;;;;;-144.99;48.25;52134.22;5090623;28;20262;-64
2021/06/24 10:04:39;;;;;;;4.30;2.47;;;;;;;-144.99;47.88;52142.38;5089730;28;20214;-67
2021/06/24 10:07:08;;;;;;;3.47;1.60;;;;;;;-144.99;48.19;52183.13;5090384;28;20278;-67
2021/06/24 10:09:38;;;;;;;4.07;2.93;;;;;;;-144.99;48.17;52195.34;5090424;28;20223;-65
2021/06/24 10:12:06;;;;;;;7.87;2.50;;;;;;;-144.99;47.64;52174.97;5090545;28;20205;-65
2021/06/24 10:14:32;;;;;;;4.30;2.40;;;;;;;-144.99;48.58;52174.97;5091071;28;20210;-66
2021/06/24 10:17:02;;;;;;;6.47;3.50;;;;;;;-144.99;49.18;52191.28;5090769;28;20582;-67
2021/06/24 10:19:31;;;;;;;3.47;2.13;;;;;;;-144.99;48.80;52179.06;5091237;28;20238;-65
2021/06/24 10:22:03;;;;;;;6.50;2.10;;;;;;;-144.99;48.50;52191.28;5086920;28;20221;-69
2021/06/24 10:24:32;;;;;;;4.77;1.90;;;;;;;-144.99;48.04;52130.13;5086250;28;20359;-65
2021/06/24 10:27:06;;;;;;;4.03;2.57;;;;;;;-144.99;47.84;52160.72;5092199;28;20672;-67
2021/06/24 10:29:44;;;;;;;4.30;2.23;;;;;;;-144.99;49.00;52185.16;5088793;28;20235;-67
2021/06/24 10:32:26;;;;;;;4.93;2.50;;;;;;;-144.99;47.43;52203.50;5090994;28;20751;-64
2021/06/24 10:34:54;;;;;;;5.50;2.17;;;;;;;-144.99;47.33;52199.44;5083791;28;20220;-66
2021/06/24 10:37:23;;;;;;;6.47;2.00;;;;;;;-144.99;47.50;52170.91;5076563;28;20209;-65
2021/06/24 10:39:51;;;;;;;5.90;1.57;;;;;;;-144.99;48.07;52146.44;5089095;28;20296;-67
2021/06/24 10:42:19;;;;;;;9.13;3.53;;;;;;;-144.99;48.09;52170.91;5089840;28;20221;-65
2021/06/24 10:44:57;;;;;;;4.27;2.30;;;;;;;-144.99;47.55;52158.66;5089379;28;20218;-67
2021/06/24 10:47:33;;;;;;;4.93;1.90;;;;;;;-144.99;47.61;52172.94;5089765;28;20210;-67
2021/06/24 10:50:34;;;;;;;4.13;1.70;;;;;;;-144.99;47.87;52164.78;5089330;28;20229;-69
2021/06/24 10:53:42;;;;;;;6.90;2.30;;;;;;;-144.99;47.86;52195.34;5085023;28;20210;-66
2021/06/24 10:56:49;;;;;;;4.40;1.27;;;;;;;-144.99;47.66;52138.28;5084574;28;20198;-67
2021/06/24 10:59:33;;;;;;;6.07;2.27;;;;;;;-144.99;47.45;52134.22;5083513;28;20296;-68
2021/06/24 11:02:10;;;;;;;4.33;1.67;;;;;;;-144.99;46.75;52128.09;5080189;28;20243;-65
2021/06/24 11:04:39;;;;;;;2.03;1.30;;;;;;;-144.99;47.10;52101.59;5089732;28;20207;-67
2021/06/24 11:07:21;;;;;;;2.77;1.80;;;;;;;-144.99;46.52;52095.50;5083229;28;20219;-69
2021/06/24 11:10:13;;;;;;;6.80;2.80;;;;;;;-144.99;45.52;52126.06;5083268;28;20222;-65
2021/06/24 11:13:06;;;;;;;5.57;2.13;;;;;;;-144.99;46.07;52121.97;5087687;28;20207;-68
2021/06/24 11:15:48;;;;;;;4.90;1.83;;;;;;;-144.99;45.82;52097.53;5073609;28;20214;-65
2021/06/24 11:18:56;;;;;;;3.87;1.87;;;;;;;-144.99;45.27;52099.56;5082610;28;20231;-66
2021/06/24 11:21:53;;;;;;;4.07;2.03;;;;;;;-144.99;45.54;52160.72;5086542;28;20593;-67
2021/06/24 11:24:26;;;;;;;5.33;1.40;;;;;;;-144.99;45.64;52134.22;5087600;28;20218;-65
2021/06/24 11:26:55;;;;;;;4.57;1.43;;;;;;;-144.99;46.15;52113.84;5092962;28;20207;-67